Terminal Aerodrome Forecast
Issued by NWS

Home | Current Version | Previous Version | Text Only | Print | Product List | Glossary On
Versions: 1 2 3 4 5 6 7 8 9 10 11 12 13 14 15 16 17 18 19 20 21 22 23 24 25 26 27 28 29 30 31 32 33 34
000
FTUS44 KFWD 220906 AAA
TAFAFW
TAF AMD
KAFW 220906Z 2209/2306 12010KT P6SM OVC010
      TEMPO 2209/2211 OVC012
     FM221100 08006KT 6SM BR VCSH OVC009
     FM221600 10008KT P6SM OVC015
     FM222000 13009KT P6SM BKN025=

USA.gov is the U.S. government's official web portal to all federal, state and local government web resources and services.